createdAt,value
2023-05-13T00:00:44.229Z,18.44
2023-05-13T00:03:16.442Z,18.45
2023-05-13T00:05:48.542Z,18.46
2023-05-13T00:08:20.601Z,18.48
2023-05-13T00:10:52.515Z,18.46
2023-05-13T00:13:24.466Z,18.45
2023-05-13T00:15:56.501Z,18.45
2023-05-13T00:18:28.574Z,18.45
2023-05-13T00:21:00.663Z,18.44
2023-05-13T00:23:32.824Z,18.42
2023-05-13T00:26:05.133Z,18.38
2023-05-13T00:28:37.038Z,18.37
2023-05-13T00:31:10.155Z,18.34
2023-05-13T00:33:42.150Z,18.30
2023-05-13T00:36:14.397Z,18.30
2023-05-13T00:38:46.520Z,18.29
2023-05-13T00:41:19.947Z,18.26
2023-05-13T00:43:56.074Z,18.24
2023-05-13T00:46:34.294Z,18.21
2023-05-13T00:49:06.283Z,18.21
2023-05-13T00:51:38.821Z,18.20
2023-05-13T00:54:10.820Z,18.18
2023-05-13T00:56:42.733Z,18.13
2023-05-13T00:59:14.668Z,18.13
2023-05-13T01:02:30.439Z,18.06
2023-05-13T01:05:31.188Z,18.02
2023-05-13T01:08:37.914Z,17.81
2023-05-13T01:11:22.996Z,17.94
2023-05-13T01:14:09.163Z,17.91
2023-05-13T01:16:52.239Z,17.88
2023-05-13T01:19:46.768Z,17.81
2023-05-13T01:22:18.756Z,17.80
2023-05-13T01:24:50.721Z,17.73
2023-05-13T01:27:23.009Z,17.71
2023-05-13T01:29:56.803Z,17.73
2023-05-13T01:32:29.339Z,17.68
2023-05-13T01:35:06.184Z,17.69
2023-05-13T01:37:38.514Z,17.64
2023-05-13T01:40:24.338Z,17.60
2023-05-13T01:43:02.846Z,17.55
2023-05-13T01:45:34.910Z,17.54
2023-05-13T01:48:06.971Z,17.47
2023-05-13T01:50:38.984Z,17.44
2023-05-13T01:53:10.916Z,17.41
2023-05-13T01:55:42.918Z,17.40
2023-05-13T01:58:14.904Z,17.30
2023-05-13T02:00:46.829Z,17.32
2023-05-13T02:03:19.341Z,17.32
2023-05-13T02:05:51.386Z,17.27
2023-05-13T02:08:25.394Z,17.21
2023-05-13T02:11:00.936Z,17.23
2023-05-13T02:13:32.903Z,17.17
2023-05-13T02:16:05.348Z,17.19
2023-05-13T02:18:37.454Z,17.17
2023-05-13T02:21:09.574Z,17.17
2023-05-13T02:23:41.509Z,17.15
2023-05-13T02:26:13.547Z,17.11
2023-05-13T02:28:45.528Z,17.07
2023-05-13T02:31:17.519Z,17.04
2023-05-13T02:33:49.510Z,17.03
2023-05-13T02:36:21.531Z,16.92
2023-05-13T02:38:53.658Z,16.99
2023-05-13T02:41:25.700Z,16.97
2023-05-13T02:43:57.725Z,16.95
2023-05-13T02:46:29.794Z,16.89
2023-05-13T02:49:02.109Z,16.87
2023-05-13T02:51:34.073Z,16.87
2023-05-13T02:54:07.063Z,16.82
2023-05-13T02:56:38.997Z,16.81
2023-05-13T02:59:11.269Z,16.78
2023-05-13T03:01:43.409Z,16.76
2023-05-13T03:04:15.454Z,16.76
2023-05-13T03:06:48.346Z,16.70
2023-05-13T03:09:20.457Z,16.72
2023-05-13T03:11:52.411Z,16.71
2023-05-13T03:14:24.423Z,16.66
2023-05-13T03:16:56.382Z,16.61
2023-05-13T03:19:28.324Z,16.54
2023-05-13T03:22:00.318Z,16.55
2023-05-13T03:24:32.853Z,16.51
2023-05-13T03:27:05.106Z,16.51
2023-05-13T03:29:37.012Z,16.48
2023-05-13T03:32:09.146Z,16.44
2023-05-13T03:34:41.180Z,16.39
2023-05-13T03:37:13.162Z,16.39
2023-05-13T03:39:45.131Z,16.57
2023-05-13T03:42:17.095Z,16.36
2023-05-13T03:44:49.868Z,16.27
2023-05-13T03:47:21.939Z,16.25
2023-05-13T03:49:53.932Z,16.20
2023-05-13T03:52:25.864Z,16.20
2023-05-13T03:54:57.807Z,16.17
2023-05-13T03:57:29.710Z,16.16
2023-05-13T04:00:01.830Z,16.14
2023-05-13T04:02:33.842Z,16.13
2023-05-13T04:05:06.305Z,16.11
2023-05-13T04:07:38.328Z,16.14
2023-05-13T04:10:13.739Z,16.12
2023-05-13T04:12:47.296Z,16.12
2023-05-13T04:15:19.232Z,16.13
2023-05-13T04:17:52.548Z,16.10
2023-05-13T04:20:25.451Z,16.11
2023-05-13T04:22:57.461Z,16.07
2023-05-13T04:25:29.569Z,16.07
2023-05-13T04:28:01.574Z,16.07
2023-05-13T04:30:34.820Z,16.04
2023-05-13T04:33:06.862Z,16.07
2023-05-13T04:35:38.945Z,16.05
2023-05-13T04:38:10.949Z,16.05
2023-05-13T04:40:45.063Z,16.05
2023-05-13T04:43:17.048Z,16.05
2023-05-13T04:45:49.373Z,16.00
2023-05-13T04:48:21.297Z,16.02
2023-05-13T04:50:53.218Z,16.02
2023-05-13T04:53:25.636Z,15.98
2023-05-13T04:56:00.927Z,15.95
2023-05-13T04:58:33.104Z,15.98
2023-05-13T05:01:05.185Z,16.00
2023-05-13T05:03:37.269Z,16.03
2023-05-13T05:06:09.277Z,16.04
2023-05-13T05:08:41.275Z,16.07
2023-05-13T05:11:13.262Z,16.05
2023-05-13T05:13:45.443Z,16.07
2023-05-13T05:16:18.014Z,16.09
2023-05-13T05:18:50.077Z,16.11
2023-05-13T05:21:22.211Z,16.14
2023-05-13T05:23:54.219Z,16.19
2023-05-13T05:26:26.253Z,16.19
2023-05-13T05:28:58.269Z,16.27
2023-05-13T05:31:30.896Z,16.29
2023-05-13T05:34:03.375Z,16.35
2023-05-13T05:36:37.974Z,16.43
2023-05-13T05:39:11.073Z,16.52
2023-05-13T05:41:43.043Z,16.61
2023-05-13T05:44:15.029Z,16.69
2023-05-13T05:46:47.017Z,16.76
2023-05-13T05:49:18.990Z,16.88
2023-05-13T05:51:51.025Z,16.96
2023-05-13T05:54:22.930Z,17.04
2023-05-13T05:56:54.949Z,17.15
2023-05-13T05:59:26.954Z,17.22
2023-05-13T06:01:58.995Z,17.22
2023-05-13T06:04:31.122Z,17.14
2023-05-13T06:07:03.165Z,17.08
2023-05-13T06:09:35.257Z,17.09
2023-05-13T06:12:07.819Z,17.15
2023-05-13T06:14:39.787Z,17.21
2023-05-13T06:17:14.787Z,17.20
2023-05-13T06:19:46.762Z,17.18
2023-05-13T06:22:18.723Z,17.34
2023-05-13T06:24:50.773Z,17.49
2023-05-13T06:27:22.801Z,17.72
2023-05-13T06:29:54.938Z,17.83
2023-05-13T06:32:26.916Z,17.85
2023-05-13T06:34:59.153Z,17.74
2023-05-13T06:37:31.126Z,17.66
2023-05-13T06:40:04.329Z,17.73
2023-05-13T06:42:40.433Z,17.92
2023-05-13T06:45:12.483Z,18.13
2023-05-13T06:47:44.426Z,18.38
2023-05-13T06:50:16.577Z,18.51
2023-05-13T06:52:48.524Z,18.46
2023-05-13T06:55:20.565Z,18.24
2023-05-13T06:57:53.172Z,18.29
2023-05-13T07:00:25.311Z,18.46
2023-05-13T07:02:57.360Z,18.66
2023-05-13T07:05:29.561Z,18.87
2023-05-13T07:08:07.006Z,19.09
2023-05-13T07:10:39.111Z,19.08
2023-05-13T07:13:11.734Z,19.20
2023-05-13T07:15:43.796Z,19.12
2023-05-13T07:18:15.914Z,19.14
2023-05-13T07:20:47.959Z,19.21
2023-05-13T07:23:19.907Z,19.36
2023-05-13T07:25:52.559Z,19.50
2023-05-13T07:28:24.559Z,19.61
2023-05-13T07:30:56.662Z,19.57
2023-05-13T07:33:28.683Z,19.78
2023-05-13T07:36:00.844Z,19.97
2023-05-13T07:38:32.860Z,20.21
2023-05-13T07:41:04.830Z,20.43
2023-05-13T07:43:37.548Z,20.61
2023-05-13T07:46:09.531Z,20.80
2023-05-13T07:48:41.580Z,20.86
2023-05-13T07:51:13.689Z,20.91
2023-05-13T07:53:47.109Z,20.96
2023-05-13T07:56:19.103Z,21.02
2023-05-13T07:58:51.092Z,21.15
2023-05-13T08:01:23.104Z,21.33
2023-05-13T08:03:55.206Z,21.45
2023-05-13T08:06:27.267Z,21.60
2023-05-13T08:08:59.214Z,21.73
2023-05-13T08:11:31.295Z,21.77
2023-05-13T08:14:03.294Z,21.65
2023-05-13T08:16:36.496Z,21.62
2023-05-13T08:19:09.559Z,21.62
2023-05-13T08:21:42.076Z,21.75
2023-05-13T08:24:13.990Z,21.88
2023-05-13T08:26:45.870Z,22.00
2023-05-13T08:29:17.750Z,22.12
2023-05-13T08:31:50.538Z,22.28
2023-05-13T08:34:22.532Z,22.39
2023-05-13T08:36:54.708Z,22.47
2023-05-13T08:39:26.649Z,22.56
2023-05-13T08:42:00.110Z,22.60
2023-05-13T08:44:35.392Z,22.69
2023-05-13T08:47:26.141Z,22.86
2023-05-13T08:49:58.267Z,22.97
2023-05-13T08:52:31.669Z,23.06
2023-05-13T08:55:06.000Z,23.21
2023-05-13T08:57:38.244Z,23.22
2023-05-13T09:00:11.022Z,23.22
2023-05-13T09:02:43.591Z,23.36
2023-05-13T09:05:16.085Z,23.54
2023-05-13T09:07:48.126Z,23.67
2023-05-13T09:10:21.334Z,23.59
2023-05-13T09:12:56.464Z,23.57
2023-05-13T09:15:29.970Z,23.71
2023-05-13T09:18:06.816Z,23.80
2023-05-13T09:20:38.926Z,23.85
2023-05-13T09:23:11.885Z,23.88
2023-05-13T09:25:44.074Z,23.96
2023-05-13T09:28:16.229Z,24.14
2023-05-13T09:30:56.825Z,24.34
2023-05-13T09:33:32.708Z,24.38
2023-05-13T09:36:05.969Z,24.50
2023-05-13T09:38:39.212Z,24.62
2023-05-13T09:41:11.242Z,24.77
2023-05-13T09:43:43.219Z,24.80
2023-05-13T09:46:15.710Z,24.79
2023-05-13T09:48:47.796Z,24.84
2023-05-13T09:51:25.676Z,24.82
2023-05-13T09:54:07.504Z,24.91
2023-05-13T09:56:39.630Z,24.99
2023-05-13T09:59:11.863Z,25.03
2023-05-13T10:01:45.698Z,25.09
2023-05-13T10:04:18.108Z,25.23
2023-05-13T10:06:50.911Z,25.28
2023-05-13T10:09:24.299Z,25.29
2023-05-13T10:11:58.250Z,25.40
2023-05-13T10:14:31.154Z,25.54
2023-05-13T10:17:03.720Z,25.72
2023-05-13T10:19:37.157Z,25.70
2023-05-13T10:22:10.385Z,25.84
2023-05-13T10:24:43.456Z,25.76
2023-05-13T10:27:16.122Z,25.79
2023-05-13T10:29:54.356Z,25.77
2023-05-13T10:32:29.621Z,25.87
2023-05-13T10:35:07.509Z,25.95
2023-05-13T10:38:07.646Z,25.97
2023-05-13T10:40:48.224Z,26.01
2023-05-13T10:43:28.724Z,26.08
2023-05-13T10:46:07.549Z,26.17
2023-05-13T10:48:48.692Z,26.11
2023-05-13T10:51:24.996Z,26.24
2023-05-13T10:53:59.008Z,26.35
2023-05-13T10:56:31.129Z,26.41
2023-05-13T10:59:05.843Z,26.36
2023-05-13T11:01:43.727Z,26.48
2023-05-13T11:04:19.657Z,26.49
2023-05-13T11:06:52.920Z,26.43
2023-05-13T11:09:28.969Z,26.44
2023-05-13T11:12:03.905Z,26.46
2023-05-13T11:14:36.027Z,26.53
2023-05-13T11:17:11.091Z,26.67
2023-05-13T11:19:49.911Z,26.77
2023-05-13T11:22:26.438Z,26.78
2023-05-13T11:25:06.322Z,26.75
2023-05-13T11:27:41.086Z,26.63
2023-05-13T11:30:28.308Z,26.50
2023-05-13T11:33:02.776Z,26.74
2023-05-13T11:35:34.761Z,26.70
2023-05-13T11:38:06.803Z,26.80
2023-05-13T11:40:39.169Z,26.90
2023-05-13T11:43:19.756Z,27.00
2023-05-13T11:45:53.412Z,26.97
2023-05-13T11:48:26.403Z,27.06
2023-05-13T11:50:58.426Z,27.06
2023-05-13T11:53:30.583Z,27.12
2023-05-13T11:56:10.936Z,27.10
2023-05-13T11:58:43.246Z,27.16
2023-05-13T12:01:15.652Z,26.94
2023-05-13T12:03:48.153Z,26.72
2023-05-13T12:06:20.138Z,26.75
2023-05-13T12:08:52.081Z,26.65
2023-05-13T12:11:24.213Z,26.76
2023-05-13T12:13:56.302Z,26.97
2023-05-13T12:16:28.869Z,27.08
2023-05-13T12:19:07.924Z,27.00
2023-05-13T12:21:40.019Z,26.66
2023-05-13T12:24:19.670Z,26.59
2023-05-13T12:26:51.763Z,26.73
2023-05-13T12:29:23.699Z,26.83
2023-05-13T12:32:06.569Z,26.96
2023-05-13T12:34:39.068Z,27.09
2023-05-13T12:37:12.767Z,27.08
2023-05-13T12:39:45.173Z,27.14
2023-05-13T12:42:18.661Z,27.22
2023-05-13T12:44:50.726Z,27.06
2023-05-13T12:47:23.219Z,27.10
2023-05-13T12:49:58.413Z,27.17
2023-05-13T12:52:30.461Z,27.27
2023-05-13T12:55:02.437Z,27.32
2023-05-13T12:57:34.452Z,27.21
2023-05-13T13:00:10.521Z,27.16
2023-05-13T13:02:42.501Z,27.14
2023-05-13T13:05:14.655Z,27.26
2023-05-13T13:07:47.454Z,27.23
2023-05-13T13:10:19.827Z,27.09
2023-05-13T13:12:52.308Z,27.14
2023-05-13T13:15:24.468Z,27.27
2023-05-13T13:17:56.626Z,27.39
2023-05-13T13:20:28.694Z,27.37
2023-05-13T13:23:02.075Z,27.35
2023-05-13T13:25:34.102Z,27.40
2023-05-13T13:28:06.082Z,27.49
2023-05-13T13:30:38.878Z,27.53
2023-05-13T13:33:12.858Z,27.59
2023-05-13T13:35:47.083Z,27.64
2023-05-13T13:38:19.112Z,27.55
2023-05-13T13:40:51.070Z,27.44
2023-05-13T13:43:23.473Z,27.38
2023-05-13T13:45:55.520Z,27.30
2023-05-13T13:48:27.543Z,27.36
2023-05-13T13:50:59.678Z,27.45
2023-05-13T13:53:31.850Z,27.60
2023-05-13T13:56:04.016Z,27.70
2023-05-13T13:58:36.035Z,27.65
2023-05-13T14:01:08.058Z,27.58
2023-05-13T14:03:40.247Z,27.53
2023-05-13T14:06:12.378Z,27.50
2023-05-13T14:08:44.481Z,27.42
2023-05-13T14:11:16.790Z,27.46
2023-05-13T14:13:48.688Z,27.52
2023-05-13T14:16:20.748Z,27.54
2023-05-13T14:18:52.788Z,27.60
2023-05-13T14:21:24.887Z,27.68
2023-05-13T14:23:56.837Z,27.76
2023-05-13T14:26:30.025Z,27.70
2023-05-13T14:29:01.959Z,27.73
2023-05-13T14:31:33.961Z,27.64
2023-05-13T14:34:08.058Z,27.79
2023-05-13T14:36:40.122Z,27.57
2023-05-13T14:39:12.253Z,27.53
2023-05-13T14:41:46.275Z,27.53
2023-05-13T14:44:18.211Z,27.45
2023-05-13T14:46:50.970Z,27.24
2023-05-13T14:49:22.942Z,27.29
2023-05-13T14:51:55.064Z,27.38
2023-05-13T14:54:27.222Z,27.43
2023-05-13T14:56:59.153Z,27.43
2023-05-13T14:59:32.295Z,27.45
2023-05-13T15:02:04.712Z,27.52
2023-05-13T15:04:36.724Z,27.41
2023-05-13T15:07:08.923Z,26.94
2023-05-13T15:09:41.146Z,27.19
2023-05-13T15:12:13.107Z,27.26
2023-05-13T15:14:55.601Z,27.19
2023-05-13T15:17:29.281Z,27.24
2023-05-13T15:20:01.855Z,27.30
2023-05-13T15:22:34.351Z,27.33
2023-05-13T15:25:07.128Z,27.42
2023-05-13T15:27:39.126Z,27.42
2023-05-13T15:30:11.450Z,27.37
2023-05-13T15:32:43.424Z,27.41
2023-05-13T15:35:17.456Z,27.38
2023-05-13T15:37:49.490Z,27.37
2023-05-13T15:40:21.961Z,27.38
2023-05-13T15:42:54.151Z,27.29
2023-05-13T15:45:26.154Z,27.22
2023-05-13T15:47:58.153Z,27.21
2023-05-13T15:50:30.142Z,27.20
2023-05-13T15:53:02.176Z,27.05
2023-05-13T15:55:34.394Z,27.13
2023-05-13T15:58:07.180Z,27.13
2023-05-13T16:00:39.116Z,27.12
2023-05-13T16:03:11.199Z,27.08
2023-05-13T16:05:44.059Z,27.10
2023-05-13T16:08:16.259Z,27.08
2023-05-13T16:10:48.189Z,27.05
2023-05-13T16:13:21.162Z,27.02
2023-05-13T16:15:54.218Z,27.04
2023-05-13T16:18:26.801Z,27.04
2023-05-13T16:20:58.792Z,27.01
2023-05-13T16:23:30.859Z,26.99
2023-05-13T16:26:03.168Z,26.89
2023-05-13T16:28:35.328Z,26.88
2023-05-13T16:31:07.686Z,26.86
2023-05-13T16:33:39.726Z,26.88
2023-05-13T16:36:12.032Z,26.86
2023-05-13T16:38:44.121Z,26.86
2023-05-13T16:41:16.112Z,26.82
2023-05-13T16:43:48.108Z,26.68
2023-05-13T16:46:20.033Z,26.58
2023-05-13T16:48:52.085Z,26.55
2023-05-13T16:51:24.185Z,26.46
2023-05-13T16:53:56.229Z,26.50
2023-05-13T16:56:28.163Z,26.47
2023-05-13T16:59:00.209Z,26.49
2023-05-13T17:01:32.207Z,26.44
2023-05-13T17:04:04.399Z,26.46
2023-05-13T17:06:36.421Z,26.44
2023-05-13T17:09:08.818Z,26.38
2023-05-13T17:11:41.174Z,26.33
2023-05-13T17:14:13.158Z,26.36
2023-05-13T17:16:45.175Z,26.38
2023-05-13T17:19:17.392Z,26.28
2023-05-13T17:21:49.437Z,26.28
2023-05-13T17:24:22.413Z,26.27
2023-05-13T17:26:54.373Z,26.25
2023-05-13T17:29:26.445Z,26.26
2023-05-13T17:31:58.531Z,26.23
2023-05-13T17:34:30.591Z,26.23
2023-05-13T17:37:02.824Z,26.27
2023-05-13T17:39:34.788Z,26.29
2023-05-13T17:42:06.780Z,26.30
2023-05-13T17:44:38.691Z,26.29
2023-05-13T17:47:10.776Z,26.15
2023-05-13T17:49:42.705Z,26.06
2023-05-13T17:52:14.632Z,25.95
2023-05-13T17:54:46.551Z,25.86
2023-05-13T17:57:18.518Z,25.81
2023-05-13T17:59:50.514Z,25.68
2023-05-13T18:02:22.791Z,25.63
2023-05-13T18:04:54.784Z,25.58
2023-05-13T18:07:26.761Z,25.52
2023-05-13T18:09:58.855Z,25.52
2023-05-13T18:12:31.044Z,25.48
2023-05-13T18:15:03.508Z,25.41
2023-05-13T18:17:35.495Z,25.36
2023-05-13T18:20:08.536Z,25.35
2023-05-13T18:22:40.648Z,25.34
2023-05-13T18:25:12.755Z,25.34
2023-05-13T18:27:44.786Z,25.32
2023-05-13T18:30:18.444Z,25.28
2023-05-13T18:32:51.284Z,25.28
2023-05-13T18:35:24.429Z,25.26
2023-05-13T18:37:56.461Z,25.22
2023-05-13T18:40:28.366Z,25.20
2023-05-13T18:43:00.400Z,25.12
2023-05-13T18:45:32.409Z,24.98
2023-05-13T18:48:04.859Z,25.01
2023-05-13T18:50:36.855Z,24.95
2023-05-13T18:53:08.945Z,24.84
2023-05-13T18:55:41.139Z,24.85
2023-05-13T18:58:13.903Z,24.80
2023-05-13T19:00:45.919Z,24.76
2023-05-13T19:03:18.099Z,24.69
2023-05-13T19:05:50.210Z,24.65
2023-05-13T19:08:22.561Z,24.56
2023-05-13T19:10:54.605Z,24.53
2023-05-13T19:13:39.396Z,24.47
2023-05-13T19:16:19.165Z,24.34
2023-05-13T19:18:51.269Z,24.26
2023-05-13T19:21:23.591Z,24.20
2023-05-13T19:23:55.663Z,24.12
2023-05-13T19:26:27.598Z,24.06
2023-05-13T19:29:00.111Z,24.04
2023-05-13T19:31:32.415Z,24.00
2023-05-13T19:34:04.526Z,24.06
2023-05-13T19:36:36.590Z,23.91
2023-05-13T19:39:08.874Z,23.83
2023-05-13T19:41:41.108Z,23.78
2023-05-13T19:44:13.076Z,23.71
2023-05-13T19:46:45.143Z,23.63
2023-05-13T19:49:17.172Z,23.61
2023-05-13T19:51:49.377Z,23.58
2023-05-13T19:54:21.461Z,23.55
2023-05-13T19:56:53.839Z,23.50
2023-05-13T19:59:25.805Z,23.44
2023-05-13T20:01:57.789Z,23.40
2023-05-13T20:04:29.865Z,23.34
2023-05-13T20:07:01.825Z,23.30
2023-05-13T20:09:33.773Z,23.31
2023-05-13T20:12:05.953Z,23.25
2023-05-13T20:14:46.910Z,23.23
2023-05-13T20:17:21.544Z,23.21
2023-05-13T20:19:54.717Z,23.19
2023-05-13T20:22:26.706Z,23.14
2023-05-13T20:24:59.022Z,23.07
2023-05-13T20:27:31.202Z,23.04
2023-05-13T20:30:03.657Z,23.01
2023-05-13T20:32:35.728Z,22.94
2023-05-13T20:35:08.818Z,22.89
2023-05-13T20:37:41.036Z,22.84
2023-05-13T20:40:13.183Z,22.83
2023-05-13T20:42:45.369Z,22.80
2023-05-13T20:45:17.685Z,22.80
2023-05-13T20:47:49.597Z,22.82
2023-05-13T20:50:22.210Z,22.77
2023-05-13T20:52:55.426Z,22.73
2023-05-13T20:55:27.623Z,22.70
2023-05-13T20:57:59.619Z,22.67
2023-05-13T21:00:31.696Z,22.62
2023-05-13T21:03:04.257Z,22.64
2023-05-13T21:05:36.522Z,22.61
2023-05-13T21:08:09.032Z,22.60
2023-05-13T21:10:41.270Z,22.47
2023-05-13T21:13:13.226Z,22.56
2023-05-13T21:15:45.262Z,22.54
2023-05-13T21:18:17.541Z,22.52
2023-05-13T21:20:49.659Z,22.50
2023-05-13T21:23:21.678Z,22.48
2023-05-13T21:25:53.682Z,22.44
2023-05-13T21:28:25.645Z,22.43
2023-05-13T21:30:57.551Z,22.42
2023-05-13T21:33:29.920Z,22.38
2023-05-13T21:36:01.888Z,22.33
2023-05-13T21:38:33.881Z,22.34
2023-05-13T21:41:05.788Z,22.29
2023-05-13T21:43:37.773Z,22.28
2023-05-13T21:46:09.707Z,22.23
2023-05-13T21:48:41.669Z,22.21
2023-05-13T21:51:14.159Z,22.17
2023-05-13T21:53:46.136Z,22.16
2023-05-13T21:56:18.126Z,22.11
2023-05-13T21:58:50.627Z,22.01
2023-05-13T22:01:22.602Z,22.04
2023-05-13T22:03:54.603Z,22.02
2023-05-13T22:06:26.622Z,22.00
2023-05-13T22:08:58.841Z,21.95
2023-05-13T22:11:30.841Z,21.92
2023-05-13T22:14:02.842Z,21.89
2023-05-13T22:16:34.768Z,21.87
2023-05-13T22:19:06.950Z,21.84
2023-05-13T22:21:38.968Z,21.82
2023-05-13T22:24:10.959Z,21.78
2023-05-13T22:26:43.839Z,21.78
2023-05-13T22:29:15.775Z,21.71
2023-05-13T22:31:47.736Z,21.72
2023-05-13T22:34:19.764Z,21.71
2023-05-13T22:36:51.752Z,21.68
2023-05-13T22:39:24.921Z,21.61
2023-05-13T22:41:57.194Z,21.54
2023-05-13T22:44:29.160Z,21.56
2023-05-13T22:47:01.128Z,21.54
2023-05-13T22:49:33.060Z,21.52
2023-05-13T22:52:05.964Z,21.48
2023-05-13T22:54:37.951Z,21.45
2023-05-13T22:57:09.837Z,21.41
2023-05-13T22:59:41.772Z,21.38
2023-05-13T23:02:13.784Z,21.37
2023-05-13T23:04:45.811Z,21.36
2023-05-13T23:07:17.715Z,21.31
2023-05-13T23:09:49.712Z,21.29
2023-05-13T23:12:22.408Z,21.26
2023-05-13T23:14:54.362Z,21.22
2023-05-13T23:17:26.340Z,21.16
2023-05-13T23:19:58.403Z,21.14
2023-05-13T23:22:30.438Z,21.09
2023-05-13T23:25:02.412Z,21.06
2023-05-13T23:27:34.789Z,21.04
2023-05-13T23:30:07.714Z,21.00
2023-05-13T23:32:39.751Z,20.94
2023-05-13T23:35:12.419Z,20.88
2023-05-13T23:37:44.359Z,20.87
2023-05-13T23:40:16.489Z,20.81
2023-05-13T23:42:48.504Z,20.75
2023-05-13T23:45:20.689Z,20.68
2023-05-13T23:47:52.682Z,20.64
2023-05-13T23:50:24.871Z,20.62
2023-05-13T23:52:57.037Z,20.56
2023-05-13T23:55:29.073Z,20.51
2023-05-13T23:58:01.022Z,20.47
